sensor_id;sensor_type;location;lat;lon;timestamp;pressure;altitude;pressure_sealevel;temperature;humidity
62708;BME280;48769;51.624;5.886;2023-06-01T00:02:21;102130.94;;;14.09;100.00
62708;BME280;48769;51.624;5.886;2023-06-01T00:04:46;102131.94;;;14.06;100.00
62708;BME280;48769;51.624;5.886;2023-06-01T00:07:13;102131.06;;;13.66;100.00
62708;BME280;48769;51.624;5.886;2023-06-01T00:09:39;102133.13;;;13.60;100.00
62708;BME280;48769;51.624;5.886;2023-06-01T00:12:07;102131.13;;;13.65;100.00
62708;BME280;48769;51.624;5.886;2023-06-01T00:14:33;102133.63;;;13.49;100.00
62708;BME280;48769;51.624;5.886;2023-06-01T00:16:59;102125.66;;;13.49;100.00
62708;BME280;48769;51.624;5.886;2023-06-01T00:19:28;102139.84;;;13.48;100.00
62708;BME280;48769;51.624;5.886;2023-06-01T00:21:54;102141.16;;;13.58;100.00
62708;BME280;48769;51.624;5.886;2023-06-01T00:24:21;102129.47;;;13.42;100.00
62708;BME280;48769;51.624;5.886;2023-06-01T00:26:47;102128.34;;;13.47;100.00
62708;BME280;48769;51.624;5.886;2023-06-01T00:29:13;102129.22;;;13.48;100.00
62708;BME280;48769;51.624;5.886;2023-06-01T00:31:39;102124.88;;;13.25;100.00
62708;BME280;48769;51.624;5.886;2023-06-01T00:34:05;102131.69;;;13.10;100.00
62708;BME280;48769;51.624;5.886;2023-06-01T00:36:30;102123.97;;;12.82;100.00
62708;BME280;48769;51.624;5.886;2023-06-01T00:38:56;102126.06;;;12.74;100.00
62708;BME280;48769;51.624;5.886;2023-06-01T00:41:27;102122.38;;;12.78;100.00
62708;BME280;48769;51.624;5.886;2023-06-01T00:43:52;102123.38;;;12.75;100.00
62708;BME280;48769;51.624;5.886;2023-06-01T00:46:18;102116.97;;;12.81;100.00
62708;BME280;48769;51.624;5.886;2023-06-01T00:48:43;102124.47;;;12.70;100.00
62708;BME280;48769;51.624;5.886;2023-06-01T00:51:09;102124.31;;;12.74;100.00
62708;BME280;48769;51.624;5.886;2023-06-01T00:53:34;102130.91;;;12.40;100.00
62708;BME280;48769;51.624;5.886;2023-06-01T00:56:00;102132.28;;;12.51;100.00
62708;BME280;48769;51.624;5.886;2023-06-01T00:58:26;102131.16;;;12.34;100.00
62708;BME280;48769;51.624;5.886;2023-06-01T01:00:51;102134.31;;;12.44;100.00
62708;BME280;48769;51.624;5.886;2023-06-01T01:03:20;102138.97;;;12.37;100.00
62708;BME280;48769;51.624;5.886;2023-06-01T01:05:47;102131.53;;;12.25;100.00
62708;BME280;48769;51.624;5.886;2023-06-01T01:11:06;102140.44;;;12.23;100.00
62708;BME280;48769;51.624;5.886;2023-06-01T01:13:50;102141.22;;;12.01;100.00
62708;BME280;48769;51.624;5.886;2023-06-01T01:16:39;102139.31;;;12.05;100.00
62708;BME280;48769;51.624;5.886;2023-06-01T01:25:14;102159.03;;;11.98;100.00
62708;BME280;48769;51.624;5.886;2023-06-01T01:28:06;102156.69;;;11.88;100.00
62708;BME280;48769;51.624;5.886;2023-06-01T01:30:36;102147.91;;;11.88;100.00
62708;BME280;48769;51.624;5.886;2023-06-01T01:33:03;102145.13;;;11.91;100.00
62708;BME280;48769;51.624;5.886;2023-06-01T01:35:30;102151.72;;;12.04;100.00
62708;BME280;48769;51.624;5.886;2023-06-01T01:37:57;102144.84;;;11.99;100.00
62708;BME280;48769;51.624;5.886;2023-06-01T01:40:22;102148.13;;;12.05;100.00
62708;BME280;48769;51.624;5.886;2023-06-01T01:42:48;102147.38;;;12.02;100.00
62708;BME280;48769;51.624;5.886;2023-06-01T01:45:15;102149.56;;;11.90;100.00
62708;BME280;48769;51.624;5.886;2023-06-01T01:50:18;102155.47;;;11.72;100.00
62708;BME280;48769;51.624;5.886;2023-06-01T01:52:46;102152.72;;;11.75;100.00
62708;BME280;48769;51.624;5.886;2023-06-01T01:55:13;102150.31;;;11.94;100.00
62708;BME280;48769;51.624;5.886;2023-06-01T01:57:41;102151.50;;;11.85;100.00
62708;BME280;48769;51.624;5.886;2023-06-01T02:00:07;102155.59;;;11.69;100.00
62708;BME280;48769;51.624;5.886;2023-06-01T02:02:32;102145.94;;;11.68;100.00
62708;BME280;48769;51.624;5.886;2023-06-01T02:04:58;102147.63;;;11.70;100.00
62708;BME280;48769;51.624;5.886;2023-06-01T02:07:24;102152.03;;;11.70;100.00
62708;BME280;48769;51.624;5.886;2023-06-01T02:09:49;102150.69;;;11.83;100.00
62708;BME280;48769;51.624;5.886;2023-06-01T02:12:15;102141.75;;;11.87;100.00
62708;BME280;48769;51.624;5.886;2023-06-01T02:14:40;102147.97;;;11.86;100.00
62708;BME280;48769;51.624;5.886;2023-06-01T02:17:06;102141.56;;;11.92;100.00
62708;BME280;48769;51.624;5.886;2023-06-01T02:19:34;102146.75;;;11.95;100.00
62708;BME280;48769;51.624;5.886;2023-06-01T02:22:00;102148.75;;;11.88;100.00
62708;BME280;48769;51.624;5.886;2023-06-01T02:24:26;102137.09;;;11.94;100.00
62708;BME280;48769;51.624;5.886;2023-06-01T02:26:51;102146.63;;;11.73;100.00
62708;BME280;48769;51.624;5.886;2023-06-01T02:29:19;102141.56;;;11.67;100.00
62708;BME280;48769;51.624;5.886;2023-06-01T02:31:47;102139.50;;;11.75;100.00
62708;BME280;48769;51.624;5.886;2023-06-01T02:34:12;102133.38;;;11.73;100.00
62708;BME280;48769;51.624;5.886;2023-06-01T02:36:37;102131.72;;;11.45;100.00
62708;BME280;48769;51.624;5.886;2023-06-01T02:39:03;102132.47;;;11.49;100.00
62708;BME280;48769;51.624;5.886;2023-06-01T02:41:28;102134.63;;;11.63;100.00
62708;BME280;48769;51.624;5.886;2023-06-01T02:43:54;102143.56;;;11.60;100.00
62708;BME280;48769;51.624;5.886;2023-06-01T02:46:19;102136.63;;;11.56;100.00
62708;BME280;48769;51.624;5.886;2023-06-01T02:48:45;102145.09;;;11.66;100.00
62708;BME280;48769;51.624;5.886;2023-06-01T02:51:11;102138.91;;;11.67;100.00
62708;BME280;48769;51.624;5.886;2023-06-01T02:53:42;102138.81;;;11.70;100.00
62708;BME280;48769;51.624;5.886;2023-06-01T02:56:07;102141.16;;;11.53;100.00
62708;BME280;48769;51.624;5.886;2023-06-01T02:58:33;102144.94;;;11.45;100.00
62708;BME280;48769;51.624;5.886;2023-06-01T03:00:58;102136.72;;;11.53;100.00
62708;BME280;48769;51.624;5.886;2023-06-01T03:03:24;102144.47;;;11.59;100.00
62708;BME280;48769;51.624;5.886;2023-06-01T03:05:50;102133.22;;;11.53;100.00
62708;BME280;48769;51.624;5.886;2023-06-01T03:08:16;102137.63;;;11.54;100.00
62708;BME280;48769;51.624;5.886;2023-06-01T03:10:42;102124.25;;;11.57;100.00
62708;BME280;48769;51.624;5.886;2023-06-01T03:13:07;102132.03;;;11.61;100.00
62708;BME280;48769;51.624;5.886;2023-06-01T03:15:33;102134.09;;;11.53;100.00
62708;BME280;48769;51.624;5.886;2023-06-01T03:17:58;102134.19;;;11.75;100.00
62708;BME280;48769;51.624;5.886;2023-06-01T03:20:24;102132.25;;;11.80;100.00
62708;BME280;48769;51.624;5.886;2023-06-01T03:22:49;102139.81;;;11.66;100.00
62708;BME280;48769;51.624;5.886;2023-06-01T03:25:15;102135.38;;;11.66;100.00
62708;BME280;48769;51.624;5.886;2023-06-01T03:27:42;102138.94;;;11.65;100.00
62708;BME280;48769;51.624;5.886;2023-06-01T03:30:10;102137.50;;;11.57;100.00
62708;BME280;48769;51.624;5.886;2023-06-01T03:32:37;102131.50;;;11.52;100.00
62708;BME280;48769;51.624;5.886;2023-06-01T03:35:04;102134.53;;;11.66;100.00
62708;BME280;48769;51.624;5.886;2023-06-01T03:37:30;102133.63;;;11.67;100.00
62708;BME280;48769;51.624;5.886;2023-06-01T03:40:07;102132.81;;;11.65;100.00
62708;BME280;48769;51.624;5.886;2023-06-01T03:42:42;102134.97;;;11.54;100.00
62708;BME280;48769;51.624;5.886;2023-06-01T03:45:09;102127.50;;;11.65;100.00
62708;BME280;48769;51.624;5.886;2023-06-01T03:47:35;102129.75;;;11.76;100.00
62708;BME280;48769;51.624;5.886;2023-06-01T03:50:01;102127.22;;;11.73;100.00
62708;BME280;48769;51.624;5.886;2023-06-01T03:52:30;102131.63;;;11.74;100.00
62708;BME280;48769;51.624;5.886;2023-06-01T03:54:57;102132.47;;;11.74;100.00
62708;BME280;48769;51.624;5.886;2023-06-01T03:57:23;102137.59;;;11.79;100.00
62708;BME280;48769;51.624;5.886;2023-06-01T03:59:48;102133.16;;;11.79;100.00
62708;BME280;48769;51.624;5.886;2023-06-01T04:02:17;102149.88;;;11.81;100.00
62708;BME280;48769;51.624;5.886;2023-06-01T04:04:49;102153.66;;;11.74;100.00
62708;BME280;48769;51.624;5.886;2023-06-01T04:07:16;102147.06;;;11.61;100.00
62708;BME280;48769;51.624;5.886;2023-06-01T04:09:49;102142.63;;;11.61;100.00
62708;BME280;48769;51.624;5.886;2023-06-01T04:12:15;102144.31;;;11.64;100.00
62708;BME280;48769;51.624;5.886;2023-06-01T04:14:41;102146.63;;;11.73;100.00
62708;BME280;48769;51.624;5.886;2023-06-01T04:17:07;102142.22;;;11.74;100.00
62708;BME280;48769;51.624;5.886;2023-06-01T04:19:33;102137.25;;;11.64;100.00
62708;BME280;48769;51.624;5.886;2023-06-01T04:21:59;102138.19;;;11.62;100.00
62708;BME280;48769;51.624;5.886;2023-06-01T04:24:25;102138.19;;;11.62;100.00
62708;BME280;48769;51.624;5.886;2023-06-01T04:26:50;102141.91;;;11.56;100.00
62708;BME280;48769;51.624;5.886;2023-06-01T04:29:16;102143.78;;;11.54;100.00
62708;BME280;48769;51.624;5.886;2023-06-01T04:31:47;102142.19;;;11.49;100.00
62708;BME280;48769;51.624;5.886;2023-06-01T04:34:12;102149.53;;;11.65;100.00
62708;BME280;48769;51.624;5.886;2023-06-01T04:36:38;102145.09;;;11.66;100.00
62708;BME280;48769;51.624;5.886;2023-06-01T04:39:07;102147.81;;;11.64;100.00
62708;BME280;48769;51.624;5.886;2023-06-01T04:41:33;102156.56;;;11.66;100.00
62708;BME280;48769;51.624;5.886;2023-06-01T04:44:00;102153.66;;;11.74;100.00
62708;BME280;48769;51.624;5.886;2023-06-01T04:46:25;102159.72;;;11.78;100.00
62708;BME280;48769;51.624;5.886;2023-06-01T04:48:52;102160.75;;;11.74;100.00
62708;BME280;48769;51.624;5.886;2023-06-01T04:51:18;102159.28;;;11.65;100.00
62708;BME280;48769;51.624;5.886;2023-06-01T04:53:50;102158.25;;;11.69;100.00
62708;BME280;48769;51.624;5.886;2023-06-01T04:56:23;102156.88;;;11.82;100.00
62708;BME280;48769;51.624;5.886;2023-06-01T04:58:53;102163.84;;;11.86;100.00
62708;BME280;48769;51.624;5.886;2023-06-01T05:01:22;102163.94;;;11.83;100.00
62708;BME280;48769;51.624;5.886;2023-06-01T05:03:50;102160.84;;;11.70;100.00
62708;BME280;48769;51.624;5.886;2023-06-01T05:06:16;102164.16;;;11.77;100.00
62708;BME280;48769;51.624;5.886;2023-06-01T05:08:42;102160.56;;;11.78;100.00
62708;BME280;48769;51.624;5.886;2023-06-01T05:11:08;102148.66;;;11.91;100.00
62708;BME280;48769;51.624;5.886;2023-06-01T05:13:35;102154.34;;;11.79;100.00
62708;BME280;48769;51.624;5.886;2023-06-01T05:16:02;102152.22;;;11.90;100.00
62708;BME280;48769;51.624;5.886;2023-06-01T05:18:27;102162.72;;;11.93;100.00
62708;BME280;48769;51.624;5.886;2023-06-01T05:20:52;102154.91;;;11.89;100.00
62708;BME280;48769;51.624;5.886;2023-06-01T05:23:18;102151.72;;;12.04;100.00
62708;BME280;48769;51.624;5.886;2023-06-01T05:25:43;102149.81;;;12.08;100.00
62708;BME280;48769;51.624;5.886;2023-06-01T05:28:08;102146.72;;;12.20;100.00
62708;BME280;48769;51.624;5.886;2023-06-01T05:30:34;102147.13;;;12.33;100.00
62708;BME280;48769;51.624;5.886;2023-06-01T05:33:00;102139.16;;;12.33;100.00
62708;BME280;48769;51.624;5.886;2023-06-01T05:35:26;102145.09;;;12.39;100.00
62708;BME280;48769;51.624;5.886;2023-06-01T05:37:51;102144.50;;;12.31;100.00
62708;BME280;48769;51.624;5.886;2023-06-01T05:40:17;102144.97;;;12.43;100.00
62708;BME280;48769;51.624;5.886;2023-06-01T05:42:42;102152.00;;;12.44;100.00
62708;BME280;48769;51.624;5.886;2023-06-01T05:45:09;102141.63;;;12.37;100.00
62708;BME280;48769;51.624;5.886;2023-06-01T05:47:34;102145.84;;;12.43;100.00
62708;BME280;48769;51.624;5.886;2023-06-01T05:50:00;102153.66;;;12.46;100.00
62708;BME280;48769;51.624;5.886;2023-06-01T05:52:25;102154.06;;;12.59;100.00
62708;BME280;48769;51.624;5.886;2023-06-01T05:54:51;102163.19;;;12.74;100.00
62708;BME280;48769;51.624;5.886;2023-06-01T05:57:19;102161.47;;;12.73;100.00
62708;BME280;48769;51.624;5.886;2023-06-01T05:59:44;102152.72;;;12.71;100.00
62708;BME280;48769;51.624;5.886;2023-06-01T06:02:11;102158.38;;;12.61;100.00
62708;BME280;48769;51.624;5.886;2023-06-01T06:04:36;102156.47;;;12.65;100.00
62708;BME280;48769;51.624;5.886;2023-06-01T06:07:01;102156.78;;;12.79;100.00
62708;BME280;48769;51.624;5.886;2023-06-01T06:09:29;102155.81;;;12.82;100.00
62708;BME280;48769;51.624;5.886;2023-06-01T06:11:54;102158.03;;;12.93;100.00
62708;BME280;48769;51.624;5.886;2023-06-01T06:14:20;102164.78;;;13.00;100.00
62708;BME280;48769;51.624;5.886;2023-06-01T06:16:45;102151.72;;;12.73;100.00
62708;BME280;48769;51.624;5.886;2023-06-01T06:19:11;102162.22;;;12.76;100.00
62708;BME280;48769;51.624;5.886;2023-06-01T06:21:37;102161.72;;;12.89;100.00
62708;BME280;48769;51.624;5.886;2023-06-01T06:24:03;102159.66;;;12.97;100.00
62708;BME280;48769;51.624;5.886;2023-06-01T06:26:29;102162.66;;;13.31;100.00
62708;BME280;48769;51.624;5.886;2023-06-01T06:28:54;102161.06;;;13.89;98.64
62708;BME280;48769;51.624;5.886;2023-06-01T06:31:20;102153.13;;;14.66;93.23
62708;BME280;48769;51.624;5.886;2023-06-01T06:33:46;102163.44;;;14.72;92.20
62708;BME280;48769;51.624;5.886;2023-06-01T06:36:12;102155.84;;;15.01;90.23
62708;BME280;48769;51.624;5.886;2023-06-01T06:38:37;102145.16;;;15.19;86.02
62708;BME280;48769;51.624;5.886;2023-06-01T06:41:03;102141.50;;;16.07;81.92
62708;BME280;48769;51.624;5.886;2023-06-01T06:43:29;102141.41;;;16.74;78.09
62708;BME280;48769;51.624;5.886;2023-06-01T06:45:54;102137.09;;;17.78;73.78
62708;BME280;48769;51.624;5.886;2023-06-01T06:48:20;102127.78;;;17.55;69.12
62708;BME280;48769;51.624;5.886;2023-06-01T06:50:45;102132.28;;;18.54;67.93
62708;BME280;48769;51.624;5.886;2023-06-01T06:53:11;102123.22;;;19.11;65.60
62708;BME280;48769;51.624;5.886;2023-06-01T06:55:36;102118.09;;;19.33;63.68
62708;BME280;48769;51.624;5.886;2023-06-01T06:58:02;102118.59;;;19.78;62.43
62708;BME280;48769;51.624;5.886;2023-06-01T07:00:27;102109.78;;;19.38;61.30
62708;BME280;48769;51.624;5.886;2023-06-01T07:02:52;102116.66;;;19.55;60.66
62708;BME280;48769;51.624;5.886;2023-06-01T07:05:18;102120.97;;;20.08;60.29
62708;BME280;48769;51.624;5.886;2023-06-01T07:07:44;102126.38;;;19.30;62.00
62708;BME280;48769;51.624;5.886;2023-06-01T07:10:10;102132.97;;;18.43;63.50
62708;BME280;48769;51.624;5.886;2023-06-01T07:12:35;102136.97;;;17.65;66.43
62708;BME280;48769;51.624;5.886;2023-06-01T07:15:01;102143.25;;;17.19;67.90
62708;BME280;48769;51.624;5.886;2023-06-01T07:17:27;102140.31;;;16.78;69.81
62708;BME280;48769;51.624;5.886;2023-06-01T07:19:53;102144.47;;;16.66;71.12
62708;BME280;48769;51.624;5.886;2023-06-01T07:22:18;102141.91;;;16.65;70.59
62708;BME280;48769;51.624;5.886;2023-06-01T07:24:46;102134.03;;;17.84;68.30
62708;BME280;48769;51.624;5.886;2023-06-01T07:27:12;102131.13;;;18.73;64.24
62708;BME280;48769;51.624;5.886;2023-06-01T07:29:39;102124.25;;;19.48;62.39
62708;BME280;48769;51.624;5.886;2023-06-01T07:32:05;102115.81;;;19.93;58.87
62708;BME280;48769;51.624;5.886;2023-06-01T07:34:31;102115.41;;;19.73;59.93
62708;BME280;48769;51.624;5.886;2023-06-01T07:36:58;102105.22;;;19.13;60.03
62708;BME280;48769;51.624;5.886;2023-06-01T07:39:24;102129.13;;;18.48;64.37
62708;BME280;48769;51.624;5.886;2023-06-01T07:41:50;102139.25;;;18.57;64.30
62708;BME280;48769;51.624;5.886;2023-06-01T07:44:18;102137.22;;;18.33;65.68
62708;BME280;48769;51.624;5.886;2023-06-01T07:46:45;102129.72;;;18.38;64.55
62708;BME280;48769;51.624;5.886;2023-06-01T07:49:11;102122.50;;;18.67;63.74
62708;BME280;48769;51.624;5.886;2023-06-01T07:51:40;102124.00;;;18.86;62.69
62708;BME280;48769;51.624;5.886;2023-06-01T07:54:05;102127.19;;;19.83;60.26
62708;BME280;48769;51.624;5.886;2023-06-01T07:56:30;102116.88;;;20.03;59.64
62708;BME280;48769;51.624;5.886;2023-06-01T07:58:56;102114.78;;;19.82;58.68
62708;BME280;48769;51.624;5.886;2023-06-01T08:01:21;102119.78;;;19.74;60.05
62708;BME280;48769;51.624;5.886;2023-06-01T08:03:47;102109.78;;;19.38;58.71
62708;BME280;48769;51.624;5.886;2023-06-01T08:06:14;102119.84;;;19.34;61.24
62708;BME280;48769;51.624;5.886;2023-06-01T08:08:40;102123.81;;;19.42;60.02
62708;BME280;48769;51.624;5.886;2023-06-01T08:11:06;102117.53;;;19.03;59.42
62708;BME280;48769;51.624;5.886;2023-06-01T08:13:32;102118.72;;;18.84;61.54
62708;BME280;48769;51.624;5.886;2023-06-01T08:16:00;102120.19;;;19.03;60.85
62708;BME280;48769;51.624;5.886;2023-06-01T08:18:25;102122.94;;;19.28;59.84
62708;BME280;48769;51.624;5.886;2023-06-01T08:20:51;102118.75;;;19.24;60.67
62708;BME280;48769;51.624;5.886;2023-06-01T08:23:16;102111.97;;;19.06;60.03
62708;BME280;48769;51.624;5.886;2023-06-01T08:25:45;102118.31;;;18.90;61.06
62708;BME280;48769;51.624;5.886;2023-06-01T08:28:10;102117.88;;;18.84;61.40
62708;BME280;48769;51.624;5.886;2023-06-01T08:30:36;102121.84;;;18.91;60.44
62708;BME280;48769;51.624;5.886;2023-06-01T08:33:01;102116.06;;;18.84;60.67
62708;BME280;48769;51.624;5.886;2023-06-01T08:35:28;102113.75;;;18.92;61.58
62708;BME280;48769;51.624;5.886;2023-06-01T08:37:56;102111.97;;;19.06;61.73
62708;BME280;48769;51.624;5.886;2023-06-01T08:40:22;102108.22;;;19.08;61.70
62708;BME280;48769;51.624;5.886;2023-06-01T08:42:58;102103.47;;;18.99;58.62
62708;BME280;48769;51.624;5.886;2023-06-01T08:45:25;102103.50;;;19.12;60.14
62708;BME280;48769;51.624;5.886;2023-06-01T08:47:53;102096.91;;;19.30;58.23
62708;BME280;48769;51.624;5.886;2023-06-01T08:50:19;102091.81;;;19.13;59.71
62708;BME280;48769;51.624;5.886;2023-06-01T08:52:49;102090.56;;;19.19;59.45
62708;BME280;48769;51.624;5.886;2023-06-01T08:55:18;102099.59;;;19.30;60.20
62708;BME280;48769;51.624;5.886;2023-06-01T08:57:43;102091.09;;;19.11;58.67
62708;BME280;48769;51.624;5.886;2023-06-01T09:00:12;102089.69;;;18.78;59.75
62708;BME280;48769;51.624;5.886;2023-06-01T09:02:38;102089.28;;;18.84;59.41
62708;BME280;48769;51.624;5.886;2023-06-01T09:05:05;102088.19;;;18.74;60.71
62708;BME280;48769;51.624;5.886;2023-06-01T09:07:31;102076.69;;;18.99;59.72
62708;BME280;48769;51.624;5.886;2023-06-01T09:09:56;102084.13;;;18.81;60.52
62708;BME280;48769;51.624;5.886;2023-06-01T09:12:22;102088.34;;;18.85;59.70
62708;BME280;48769;51.624;5.886;2023-06-01T09:15:06;102082.41;;;18.80;59.08
62708;BME280;48769;51.624;5.886;2023-06-01T09:17:32;102076.78;;;18.98;60.38
62708;BME280;48769;51.624;5.886;2023-06-01T09:19:58;102080.38;;;19.11;59.17
62708;BME280;48769;51.624;5.886;2023-06-01T09:22:23;102072.19;;;19.00;58.91
62708;BME280;48769;51.624;5.886;2023-06-01T09:24:59;102062.88;;;18.92;58.38
62708;BME280;48769;51.624;5.886;2023-06-01T09:27:26;102066.00;;;18.99;58.99
62708;BME280;48769;51.624;5.886;2023-06-01T09:29:56;102062.13;;;19.03;58.95
62708;BME280;48769;51.624;5.886;2023-06-01T09:32:22;102064.75;;;19.18;59.95
62708;BME280;48769;51.624;5.886;2023-06-01T09:34:49;102060.47;;;19.41;58.61
62708;BME280;48769;51.624;5.886;2023-06-01T09:37:14;102059.06;;;19.48;58.95
62708;BME280;48769;51.624;5.886;2023-06-01T09:39:40;102056.81;;;19.54;57.34
62708;BME280;48769;51.624;5.886;2023-06-01T09:42:06;102055.09;;;19.15;57.82
62708;BME280;48769;51.624;5.886;2023-06-01T09:44:40;102061.63;;;19.24;58.49
62708;BME280;48769;51.624;5.886;2023-06-01T09:47:11;102053.59;;;19.11;57.79
62708;BME280;48769;51.624;5.886;2023-06-01T09:49:45;102057.16;;;19.24;58.92
62708;BME280;48769;51.624;5.886;2023-06-01T09:52:11;102057.16;;;19.24;58.51
62708;BME280;48769;51.624;5.886;2023-06-01T09:54:48;102054.03;;;19.56;58.64
62708;BME280;48769;51.624;5.886;2023-06-01T09:57:23;102049.53;;;19.82;58.31
62708;BME280;48769;51.624;5.886;2023-06-01T09:59:49;102061.13;;;19.57;58.76
62708;BME280;48769;51.624;5.886;2023-06-01T10:02:15;102044.81;;;19.47;58.18
62708;BME280;48769;51.624;5.886;2023-06-01T10:04:46;102054.47;;;19.24;59.51
62708;BME280;48769;51.624;5.886;2023-06-01T10:07:13;102056.22;;;19.64;58.98
62708;BME280;48769;51.624;5.886;2023-06-01T10:09:41;102045.31;;;20.03;57.09
62708;BME280;48769;51.624;5.886;2023-06-01T10:12:08;102033.25;;;20.22;56.40
62708;BME280;48769;51.624;5.886;2023-06-01T10:14:36;102040.66;;;20.18;58.53
62708;BME280;48769;51.624;5.886;2023-06-01T10:17:03;102038.06;;;19.93;57.22
62708;BME280;48769;51.624;5.886;2023-06-01T10:19:29;102041.78;;;20.03;58.46
62708;BME280;48769;51.624;5.886;2023-06-01T10:21:57;102036.31;;;19.92;57.62
62708;BME280;48769;51.624;5.886;2023-06-01T10:24:22;102036.44;;;19.90;57.84
62708;BME280;48769;51.624;5.886;2023-06-01T10:29:26;102027.09;;;20.33;58.78
62708;BME280;48769;51.624;5.886;2023-06-01T10:31:52;102025.94;;;20.48;57.36
62708;BME280;48769;51.624;5.886;2023-06-01T10:34:43;102023.97;;;20.63;58.02
62708;BME280;48769;51.624;5.886;2023-06-01T10:37:10;102020.16;;;20.54;56.31
62708;BME280;48769;51.624;5.886;2023-06-01T10:39:36;102028.56;;;20.37;57.02
62708;BME280;48769;51.624;5.886;2023-06-01T10:42:34;102036.13;;;20.31;57.50
62708;BME280;48769;51.624;5.886;2023-06-01T10:45:00;102027.31;;;20.29;57.69
62708;BME280;48769;51.624;5.886;2023-06-01T10:52:30;102005.97;;;20.52;56.82
62708;BME280;48769;51.624;5.886;2023-06-01T10:57:30;102010.56;;;20.50;57.84
62708;BME280;48769;51.624;5.886;2023-06-01T11:00:16;102009.16;;;20.57;57.75
62708;BME280;48769;51.624;5.886;2023-06-01T11:07:58;102001.41;;;20.65;56.72
62708;BME280;48769;51.624;5.886;2023-06-01T11:13:14;101997.09;;;20.63;56.75
62708;BME280;48769;51.624;5.886;2023-06-01T11:19:01;102000.06;;;21.06;58.24
62708;BME280;48769;51.624;5.886;2023-06-01T11:21:36;101993.94;;;21.15;56.51
62708;BME280;48769;51.624;5.886;2023-06-01T11:24:07;101987.84;;;21.13;55.67
62708;BME280;48769;51.624;5.886;2023-06-01T11:26:39;101987.13;;;21.11;57.89
62708;BME280;48769;51.624;5.886;2023-06-01T11:29:08;101983.19;;;21.15;54.90
62708;BME280;48769;51.624;5.886;2023-06-01T11:31:35;101980.28;;;21.18;56.00
62708;BME280;48769;51.624;5.886;2023-06-01T11:34:01;101976.13;;;21.14;55.02
62708;BME280;48769;51.624;5.886;2023-06-01T11:36:27;101974.06;;;21.18;55.31
62708;BME280;48769;51.624;5.886;2023-06-01T11:38:54;101976.25;;;21.24;55.15
62708;BME280;48769;51.624;5.886;2023-06-01T11:41:22;101973.00;;;21.43;54.11
62708;BME280;48769;51.624;5.886;2023-06-01T11:43:55;101970.81;;;21.59;54.51
62708;BME280;48769;51.624;5.886;2023-06-01T11:46:24;101972.03;;;21.78;54.37
62708;BME280;48769;51.624;5.886;2023-06-01T11:49:18;101957.78;;;21.87;52.24
62708;BME280;48769;51.624;5.886;2023-06-01T11:51:43;101960.63;;;21.85;53.18
62708;BME280;48769;51.624;5.886;2023-06-01T11:54:09;101950.97;;;21.83;52.65
62708;BME280;48769;51.624;5.886;2023-06-01T11:56:35;101954.59;;;21.93;51.75
62708;BME280;48769;51.624;5.886;2023-06-01T11:59:05;101949.97;;;21.95;51.82
62708;BME280;48769;51.624;5.886;2023-06-01T12:01:35;101951.16;;;22.02;51.33
62708;BME280;48769;51.624;5.886;2023-06-01T12:04:02;101950.16;;;22.14;50.84
62708;BME280;48769;51.624;5.886;2023-06-01T12:06:28;101938.50;;;22.25;49.49
62708;BME280;48769;51.624;5.886;2023-06-01T12:08:55;101940.59;;;22.22;49.50
62708;BME280;48769;51.624;5.886;2023-06-01T12:11:25;101936.16;;;22.32;50.38
62708;BME280;48769;51.624;5.886;2023-06-01T12:13:56;101948.13;;;22.39;52.21
62708;BME280;48769;51.624;5.886;2023-06-01T12:16:23;101942.53;;;22.52;51.66
62708;BME280;48769;51.624;5.886;2023-06-01T12:18:50;101950.00;;;22.59;51.65
62708;BME280;48769;51.624;5.886;2023-06-01T12:21:16;101936.66;;;22.79;52.14
62708;BME280;48769;51.624;5.886;2023-06-01T12:23:43;101943.09;;;22.67;51.42
62708;BME280;48769;51.624;5.886;2023-06-01T12:26:13;101938.44;;;22.69;51.37
62708;BME280;48769;51.624;5.886;2023-06-01T12:28:50;101939.94;;;22.82;51.02
62708;BME280;48769;51.624;5.886;2023-06-01T12:31:17;101926.22;;;22.85;50.95
62708;BME280;48769;51.624;5.886;2023-06-01T12:33:44;101929.75;;;22.86;50.44
62708;BME280;48769;51.624;5.886;2023-06-01T12:36:11;101939.41;;;22.89;51.66
62708;BME280;48769;51.624;5.886;2023-06-01T12:38:53;101935.25;;;22.84;51.70
62708;BME280;48769;51.624;5.886;2023-06-01T12:41:19;101930.31;;;23.10;50.53
62708;BME280;48769;51.624;5.886;2023-06-01T12:43:45;101920.84;;;23.16;48.24
62708;BME280;48769;51.624;5.886;2023-06-01T12:46:29;101917.84;;;23.09;47.75
62708;BME280;48769;51.624;5.886;2023-06-01T12:49:16;101912.56;;;22.98;49.64
62708;BME280;48769;51.624;5.886;2023-06-01T12:51:43;101909.81;;;23.19;48.76
62708;BME280;48769;51.624;5.886;2023-06-01T12:54:08;101911.13;;;23.25;47.60
62708;BME280;48769;51.624;5.886;2023-06-01T12:56:34;101921.44;;;23.20;49.83
62708;BME280;48769;51.624;5.886;2023-06-01T12:58:59;101919.09;;;23.36;49.96
62708;BME280;48769;51.624;5.886;2023-06-01T13:01:27;101912.31;;;23.42;49.23
62708;BME280;48769;51.624;5.886;2023-06-01T13:03:52;101913.69;;;23.36;49.38
62708;BME280;48769;51.624;5.886;2023-06-01T13:06:18;101905.34;;;23.39;49.53
62708;BME280;48769;51.624;5.886;2023-06-01T13:08:43;101915.88;;;23.52;49.61
62708;BME280;48769;51.624;5.886;2023-06-01T13:11:09;101894.06;;;23.65;47.43
62708;BME280;48769;51.624;5.886;2023-06-01T13:13:37;101902.94;;;23.86;48.65
62708;BME280;48769;51.624;5.886;2023-06-01T13:16:03;101888.75;;;24.03;46.62
62708;BME280;48769;51.624;5.886;2023-06-01T13:18:29;101894.72;;;24.17;47.18
62708;BME280;48769;51.624;5.886;2023-06-01T13:20:54;101895.56;;;24.46;47.74